Time;durP1;ratioP1;P1;durP2;ratioP2;P2;SDS_P1;SDS_P2;PMS_P1;PMS_P2;Temp;Humidity;BMP_temperature;BMP_pressure;BME280_temperature;BME280_humidity;BME280_pressure;Samples;Min_cycle;Max_cycle;Signal;HPM_P1;HPM_P2
2024/02/19 00:00:24;;;;;;;82.75;49.72;;;10.40;99.90;;;;;;5007732;28;20584;-79
2024/02/19 00:02:50;;;;;;;89.30;56.13;;;10.30;99.90;;;;;;5008794;28;20098;-79
2024/02/19 00:05:16;;;;;;;86.50;50.67;;;10.20;99.90;;;;;;5007929;28;20026;-79
2024/02/19 00:07:42;;;;;;;90.18;49.72;;;10.30;99.90;;;;;;5008014;28;20064;-79
2024/02/19 00:10:08;;;;;;;77.15;45.65;;;10.30;99.90;;;;;;5009837;28;20073;-78
2024/02/19 00:12:34;;;;;;;79.05;45.10;;;10.30;99.90;;;;;;5008767;28;20454;-79
2024/02/19 00:14:59;;;;;;;78.35;43.10;;;10.30;99.90;;;;;;5009904;28;20042;-79
2024/02/19 00:17:25;;;;;;;75.55;43.08;;;10.30;99.90;;;;;;5011322;28;20509;-78
2024/02/19 00:19:51;;;;;;;81.50;46.53;;;10.30;99.90;;;;;;5014094;28;20025;-79
2024/02/19 00:22:17;;;;;;;77.65;46.58;;;10.20;99.90;;;;;;5013283;28;20044;-79
2024/02/19 00:24:43;;;;;;;80.65;45.80;;;10.30;99.90;;;;;;5011601;28;20037;-79
2024/02/19 00:27:08;;;;;;;76.20;45.15;;;10.40;99.90;;;;;;5013783;28;20064;-79
2024/02/19 00:29:34;;;;;;;75.28;45.75;;;10.40;99.90;;;;;;5013113;28;20499;-78
2024/02/19 00:32:00;;;;;;;73.93;45.22;;;10.40;99.90;;;;;;5011843;28;20052;-78
2024/02/19 00:34:26;;;;;;;68.95;41.17;;;10.40;99.90;;;;;;5014864;28;20052;-78
2024/02/19 00:36:52;;;;;;;77.53;44.67;;;10.40;99.90;;;;;;5013364;28;20041;-79
2024/02/19 00:39:18;;;;;;;72.85;42.42;;;10.20;99.90;;;;;;5010772;28;20448;-78
2024/02/19 00:41:44;;;;;;;79.57;43.08;;;10.10;99.90;;;;;;5012326;28;20502;-79
2024/02/19 00:44:10;;;;;;;72.22;41.00;;;10.00;99.90;;;;;;5012818;28;20044;-78
2024/02/19 00:46:35;;;;;;;77.88;43.97;;;10.00;99.90;;;;;;5011852;28;20748;-78
2024/02/19 00:49:01;;;;;;;78.15;45.20;;;10.10;99.90;;;;;;5012952;28;20390;-79
2024/02/19 00:51:27;;;;;;;75.28;44.67;;;10.20;99.90;;;;;;5013208;28;20033;-78
2024/02/19 00:53:52;;;;;;;66.63;43.92;;;10.00;99.90;;;;;;5010939;28;22567;-78
2024/02/19 00:56:18;;;;;;;76.07;44.90;;;10.00;99.90;;;;;;5012334;28;20030;-79
2024/02/19 00:58:44;;;;;;;83.45;49.00;;;10.00;99.90;;;;;;5015751;28;20621;-78
2024/02/19 01:01:09;;;;;;;84.38;50.30;;;10.10;99.90;;;;;;5016169;28;20033;-78
2024/02/19 01:03:35;;;;;;;99.65;56.53;;;10.10;99.90;;;;;;5014364;28;20045;-78
2024/02/19 01:06:01;;;;;;;86.22;50.33;;;10.10;99.90;;;;;;5017390;28;20067;-79
2024/02/19 01:08:27;;;;;;;92.50;54.10;;;10.10;99.90;;;;;;5015855;28;20041;-78
2024/02/19 01:10:52;;;;;;;83.93;50.47;;;10.10;99.90;;;;;;5014023;28;20033;-78
2024/02/19 01:13:18;;;;;;;76.68;46.95;;;10.20;99.90;;;;;;5016233;28;20092;-78
2024/02/19 01:15:44;;;;;;;76.03;43.70;;;10.20;99.90;;;;;;5015353;28;20475;-78
2024/02/19 01:18:09;;;;;;;86.82;52.15;;;10.20;99.90;;;;;;5015446;28;20044;-78
2024/02/19 01:20:36;;;;;;;88.63;53.90;;;10.00;99.90;;;;;;5016811;28;20057;-78
2024/02/19 01:23:02;;;;;;;85.95;51.33;;;10.00;99.90;;;;;;5016155;28;20978;-78
2024/02/19 01:25:28;;;;;;;85.90;48.72;;;10.00;99.90;;;;;;5015024;28;20098;-78
2024/02/19 01:27:53;;;;;;;94.78;57.80;;;10.10;99.90;;;;;;5016266;28;20025;-78
2024/02/19 01:30:19;;;;;;;94.20;56.55;;;10.20;99.90;;;;;;5014939;28;20083;-78
2024/02/19 01:32:44;;;;;;;90.18;52.97;;;10.20;99.90;;;;;;5015435;28;20036;-78
2024/02/19 01:35:10;;;;;;;90.45;51.25;;;10.30;99.90;;;;;;5016847;28;20053;-78
2024/02/19 01:37:36;;;;;;;87.53;49.22;;;10.50;99.90;;;;;;5016470;28;20029;-78
2024/02/19 01:40:09;;;;;;;95.10;55.00;;;10.50;99.90;;;;;;5014597;28;20081;-78
2024/02/19 01:42:35;;;;;;;91.22;52.45;;;10.40;99.90;;;;;;5016661;28;20026;-79
2024/02/19 01:45:02;;;;;;;83.70;48.40;;;10.40;99.90;;;;;;5013427;28;20038;-79
2024/02/19 01:47:29;;;;;;;86.32;50.58;;;10.30;99.90;;;;;;5008497;28;20029;-79
2024/02/19 01:49:55;;;;;;;82.78;48.20;;;10.20;99.90;;;;;;5007529;28;20490;-78
2024/02/19 01:52:21;;;;;;;84.18;50.00;;;10.20;99.90;;;;;;5014177;28;20046;-79
2024/02/19 01:54:48;;;;;;;87.88;49.50;;;10.20;99.90;;;;;;5015119;28;20037;-78
2024/02/19 01:57:14;;;;;;;83.53;49.35;;;10.10;99.90;;;;;;5015048;28;20111;-78
2024/02/19 01:59:42;;;;;;;84.15;51.38;;;10.10;99.90;;;;;;5015781;28;20026;-78
2024/02/19 02:02:09;;;;;;;89.00;54.05;;;10.00;99.90;;;;;;5016320;28;20044;-78
2024/02/19 02:04:36;;;;;;;93.43;54.60;;;9.90;99.90;;;;;;5012585;28;20049;-78
2024/02/19 02:07:03;;;;;;;94.78;58.28;;;9.90;99.90;;;;;;5015641;28;20032;-78
2024/02/19 02:09:30;;;;;;;94.95;54.83;;;10.00;99.90;;;;;;5014790;28;20111;-78
2024/02/19 02:11:56;;;;;;;92.93;53.05;;;10.10;99.90;;;;;;5014266;28;20176;-78
2024/02/19 02:14:21;;;;;;;86.80;50.03;;;10.10;99.90;;;;;;5015343;28;20120;-78
2024/02/19 02:16:47;;;;;;;82.28;47.33;;;9.90;99.90;;;;;;5016188;28;20495;-78
2024/02/19 02:19:16;;;;;;;76.05;42.95;;;9.90;99.90;;;;;;5014460;28;20052;-78
2024/02/19 02:21:43;;;;;;;80.10;45.88;;;9.80;99.90;;;;;;5012131;28;20056;-79
2024/02/19 02:24:09;;;;;;;89.65;51.85;;;9.70;99.90;;;;;;5014145;28;20087;-78
2024/02/19 02:26:41;;;;;;;90.75;50.13;;;9.60;99.90;;;;;;5016763;28;21607;-78
2024/02/19 02:29:07;;;;;;;83.20;50.75;;;9.70;99.90;;;;;;5013761;28;20026;-78
2024/02/19 02:31:33;;;;;;;101.20;60.50;;;9.90;99.90;;;;;;5012387;28;20142;-78
2024/02/19 02:33:59;;;;;;;83.10;49.97;;;10.00;99.90;;;;;;5014225;28;20038;-78
2024/02/19 02:36:24;;;;;;;96.65;50.92;;;10.00;99.90;;;;;;5013220;28;20077;-78
2024/02/19 02:38:50;;;;;;;82.13;50.45;;;10.20;99.90;;;;;;5012146;28;20536;-78
2024/02/19 02:41:16;;;;;;;85.20;48.72;;;10.10;99.90;;;;;;5014381;28;20411;-78
2024/02/19 02:43:42;;;;;;;88.45;51.90;;;10.00;99.90;;;;;;5013821;28;20084;-78
2024/02/19 02:46:08;;;;;;;81.80;47.65;;;9.90;99.90;;;;;;5012561;28;20124;-78
2024/02/19 02:48:34;;;;;;;87.28;51.53;;;9.80;99.90;;;;;;5015804;28;20495;-78
2024/02/19 02:51:00;;;;;;;88.13;53.80;;;9.80;99.90;;;;;;5014249;28;20073;-79
2024/02/19 02:53:26;;;;;;;93.10;52.65;;;9.70;99.90;;;;;;5013789;28;20172;-78
2024/02/19 02:55:51;;;;;;;93.70;53.75;;;9.80;99.90;;;;;;5011382;28;20509;-79
2024/02/19 02:58:17;;;;;;;87.45;49.40;;;10.00;99.90;;;;;;5014780;28;20026;-78
2024/02/19 03:00:43;;;;;;;90.18;53.55;;;10.00;99.90;;;;;;5012765;28;20027;-78
2024/02/19 03:03:09;;;;;;;89.45;49.17;;;10.00;99.90;;;;;;5013042;28;20034;-78
2024/02/19 03:05:36;;;;;;;78.78;47.08;;;10.00;99.90;;;;;;5014898;28;20495;-78
2024/02/19 03:08:01;;;;;;;80.25;47.88;;;10.00;99.90;;;;;;5013168;28;20029;-78
2024/02/19 03:10:27;;;;;;;80.70;47.05;;;10.10;99.90;;;;;;5012860;28;20404;-78
2024/02/19 03:12:52;;;;;;;79.50;45.38;;;10.00;99.90;;;;;;5014430;28;20033;-79
2024/02/19 03:15:18;;;;;;;88.28;49.00;;;9.90;99.90;;;;;;5011597;28;20577;-79
2024/02/19 03:17:44;;;;;;;76.05;45.03;;;9.70;99.90;;;;;;5012044;28;20392;-78
2024/02/19 03:20:12;;;;;;;84.80;49.22;;;9.70;99.90;;;;;;5015569;28;20033;-78
2024/02/19 03:22:40;;;;;;;86.10;50.03;;;9.70;99.90;;;;;;5013098;28;20041;-78
2024/02/19 03:25:06;;;;;;;77.60;45.72;;;9.70;99.90;;;;;;5011677;28;21051;-78
2024/02/19 03:27:32;;;;;;;75.90;46.15;;;9.70;99.90;;;;;;5013092;28;20650;-78
2024/02/19 03:29:58;;;;;;;77.18;45.10;;;9.70;99.90;;;;;;5013500;28;20036;-79
2024/02/19 03:32:23;;;;;;;76.97;44.55;;;9.70;99.90;;;;;;5011672;28;20069;-78
2024/02/19 03:34:49;;;;;;;81.70;48.05;;;9.60;99.90;;;;;;5012953;28;20348;-78
2024/02/19 03:37:15;;;;;;;83.40;49.08;;;9.70;99.90;;;;;;5013878;28;20394;-78
2024/02/19 03:39:41;;;;;;;81.43;45.38;;;9.70;99.90;;;;;;5010968;28;20052;-79
2024/02/19 03:42:07;;;;;;;79.70;44.60;;;9.80;99.90;;;;;;5012822;28;20033;-78
2024/02/19 03:44:32;;;;;;;88.78;49.40;;;9.80;99.90;;;;;;5014243;28;20037;-78
2024/02/19 03:46:58;;;;;;;82.53;47.42;;;9.90;99.90;;;;;;5012417;28;20487;-79
2024/02/19 03:49:25;;;;;;;78.18;47.78;;;9.90;99.90;;;;;;5013720;28;20096;-79
2024/02/19 03:51:50;;;;;;;89.32;51.13;;;9.80;99.90;;;;;;5013910;28;20068;-78
2024/02/19 03:54:17;;;;;;;82.68;49.95;;;9.80;99.90;;;;;;5012724;28;20167;-78
2024/02/19 03:56:43;;;;;;;87.40;52.33;;;9.70;99.90;;;;;;5012571;28;20030;-78
2024/02/19 03:59:10;;;;;;;84.80;52.85;;;9.70;99.90;;;;;;5014091;28;20041;-78
2024/02/19 04:01:38;;;;;;;90.57;51.17;;;9.70;99.90;;;;;;5011392;28;20033;-78
2024/02/19 04:04:04;;;;;;;86.35;52.90;;;9.70;99.90;;;;;;5007844;28;20034;-78
2024/02/19 04:06:30;;;;;;;95.07;54.38;;;9.60;99.90;;;;;;5007475;28;20044;-78
2024/02/19 04:08:55;;;;;;;94.07;52.58;;;9.60;99.90;;;;;;5005896;28;20324;-79
2024/02/19 04:11:21;;;;;;;94.55;52.92;;;9.60;99.90;;;;;;5009419;28;20087;-79
2024/02/19 04:13:47;;;;;;;86.80;49.65;;;9.60;99.90;;;;;;5008269;28;20111;-78
2024/02/19 04:16:12;;;;;;;88.00;48.70;;;9.70;99.90;;;;;;5007724;28;20116;-78
2024/02/19 04:18:38;;;;;;;86.07;49.00;;;9.60;99.90;;;;;;5006575;28;20573;-78
2024/02/19 04:21:04;;;;;;;82.45;48.83;;;9.70;99.90;;;;;;5004444;28;20222;-78
2024/02/19 04:23:30;;;;;;;88.72;49.80;;;9.70;99.90;;;;;;5005290;28;20045;-79
2024/02/19 04:25:55;;;;;;;83.30;46.83;;;9.70;99.90;;;;;;5006575;28;20029;-79
2024/02/19 04:28:21;;;;;;;82.43;49.47;;;9.50;99.90;;;;;;5004844;28;20090;-78
2024/02/19 04:30:47;;;;;;;82.38;47.65;;;9.50;99.90;;;;;;5005269;28;20041;-78
2024/02/19 04:33:12;;;;;;;87.07;47.55;;;9.50;99.90;;;;;;5009387;28;20422;-79
2024/02/19 04:35:38;;;;;;;84.05;47.20;;;9.40;99.90;;;;;;5009659;28;20649;-79
2024/02/19 04:38:04;;;;;;;77.05;46.33;;;9.30;99.90;;;;;;5009930;28;20121;-78
2024/02/19 04:40:29;;;;;;;79.55;46.90;;;9.30;99.90;;;;;;5010807;28;20033;-79
2024/02/19 04:42:55;;;;;;;83.68;48.40;;;9.30;99.90;;;;;;5010610;28;20030;-77
2024/02/19 04:45:21;;;;;;;95.22;54.05;;;9.20;99.90;;;;;;5012722;28;20509;-76
2024/02/19 04:47:46;;;;;;;94.25;53.55;;;9.20;99.90;;;;;;5012285;28;20038;-77
2024/02/19 04:50:12;;;;;;;87.43;53.60;;;9.10;99.90;;;;;;5008767;28;21031;-76
2024/02/19 04:52:37;;;;;;;102.38;61.63;;;9.10;99.90;;;;;;5008861;28;20045;-77
2024/02/19 04:55:03;;;;;;;112.35;60.95;;;8.90;99.90;;;;;;5009989;28;20508;-76
2024/02/19 04:57:29;;;;;;;100.95;62.55;;;8.90;99.90;;;;;;5008117;28;20769;-77
2024/02/19 04:59:55;;;;;;;86.18;55.65;;;8.80;99.90;;;;;;5008788;28;20151;-76
2024/02/19 05:02:20;;;;;;;104.45;66.45;;;8.70;99.90;;;;;;5010782;28;20132;-76
2024/02/19 05:04:46;;;;;;;99.70;58.97;;;8.90;99.90;;;;;;5008593;28;20041;-76
2024/02/19 05:07:12;;;;;;;89.05;57.78;;;9.10;99.90;;;;;;5009049;28;20038;-77
2024/02/19 05:09:37;;;;;;;83.20;50.92;;;8.90;99.90;;;;;;5009816;28;20045;-76
2024/02/19 05:12:04;;;;;;;84.30;48.00;;;8.90;99.90;;;;;;5008973;28;20045;-76
2024/02/19 05:14:29;;;;;;;89.68;53.05;;;8.90;99.90;;;;;;5012821;28;20041;-77
2024/02/19 05:16:56;;;;;;;76.20;43.10;;;8.70;99.90;;;;;;5013006;28;20033;-77
2024/02/19 05:19:21;;;;;;;79.35;49.42;;;8.70;99.90;;;;;;5011892;28;20018;-76
2024/02/19 05:21:48;;;;;;;74.97;44.72;;;8.80;99.90;;;;;;5012853;28;20036;-77
2024/02/19 05:24:16;;;;;;;78.80;45.45;;;8.90;99.90;;;;;;5012702;28;20518;-76
2024/02/19 05:26:42;;;;;;;83.55;47.50;;;9.10;99.90;;;;;;5011305;28;20037;-77
2024/02/19 05:29:08;;;;;;;85.70;46.45;;;9.00;99.90;;;;;;5012786;28;20140;-76
2024/02/19 05:31:35;;;;;;;82.38;46.45;;;9.00;99.90;;;;;;5012263;28;20038;-76
2024/02/19 05:34:03;;;;;;;81.90;48.08;;;8.90;99.90;;;;;;5012032;28;20076;-76
2024/02/19 05:36:28;;;;;;;82.55;47.92;;;8.80;99.90;;;;;;5009161;28;20039;-76
2024/02/19 05:38:54;;;;;;;76.68;45.38;;;8.80;99.90;;;;;;5010233;28;20034;-77
2024/02/19 05:41:20;;;;;;;74.07;44.30;;;8.70;99.90;;;;;;5007712;28;20446;-76
2024/02/19 05:43:48;;;;;;;71.47;42.10;;;8.50;99.90;;;;;;5007098;28;20045;-76
2024/02/19 05:46:14;;;;;;;79.35;49.67;;;8.40;99.90;;;;;;5009343;28;20040;-76
2024/02/19 05:48:43;;;;;;;80.13;49.85;;;8.20;99.90;;;;;;5008189;28;20399;-77
2024/02/19 05:51:10;;;;;;;76.55;45.15;;;8.20;99.90;;;;;;5007858;28;21754;-76
2024/02/19 05:53:36;;;;;;;92.75;50.70;;;8.40;99.90;;;;;;5010072;28;20122;-77
2024/02/19 05:56:03;;;;;;;86.35;52.03;;;8.60;99.90;;;;;;5008648;28;20041;-77
2024/02/19 05:58:32;;;;;;;80.45;49.03;;;8.70;99.90;;;;;;5006459;28;20187;-76
2024/02/19 06:00:58;;;;;;;74.75;44.47;;;8.80;99.90;;;;;;5008790;28;20068;-76
2024/02/19 06:03:26;;;;;;;77.38;48.50;;;8.60;99.90;;;;;;5008930;28;20064;-77
2024/02/19 06:05:52;;;;;;;76.30;46.03;;;8.30;99.90;;;;;;5007656;28;20043;-77
2024/02/19 06:08:18;;;;;;;76.95;47.05;;;8.40;99.90;;;;;;5007263;28;20125;-76
2024/02/19 06:10:47;;;;;;;82.03;47.65;;;8.20;99.90;;;;;;5009473;28;20090;-76
2024/02/19 06:13:13;;;;;;;75.07;45.53;;;8.30;99.90;;;;;;5010122;28;20036;-76
2024/02/19 06:15:39;;;;;;;83.93;48.78;;;8.20;99.90;;;;;;5010736;28;20033;-76
2024/02/19 06:18:05;;;;;;;78.68;48.25;;;8.20;99.90;;;;;;5011308;28;20045;-76
2024/02/19 06:20:32;;;;;;;83.68;53.63;;;8.10;99.90;;;;;;5010651;28;20130;-77
2024/02/19 06:22:57;;;;;;;83.70;50.53;;;7.90;99.90;;;;;;5016628;28;20036;-78
2024/02/19 06:25:23;;;;;;;92.68;54.53;;;7.90;99.90;;;;;;5012858;28;20138;-76
2024/02/19 06:27:49;;;;;;;96.35;55.80;;;8.00;99.90;;;;;;5005835;28;20048;-76
2024/02/19 06:30:16;;;;;;;94.28;59.78;;;8.30;99.90;;;;;;5005694;28;20099;-78
2024/02/19 06:32:42;;;;;;;95.22;56.10;;;8.30;99.90;;;;;;5006832;28;20045;-81
2024/02/19 06:35:08;;;;;;;90.75;53.10;;;8.50;99.90;;;;;;5008399;28;20049;-75
2024/02/19 06:37:34;;;;;;;91.57;51.97;;;8.60;99.90;;;;;;5016911;28;20037;-77
2024/02/19 06:39:59;;;;;;;92.07;54.47;;;8.50;99.90;;;;;;5008697;28;20396;-76
2024/02/19 06:42:25;;;;;;;97.70;61.25;;;8.30;99.90;;;;;;5009111;28;20084;-77
2024/02/19 06:44:51;;;;;;;103.53;58.65;;;8.30;99.90;;;;;;5007530;28;20245;-76
2024/02/19 06:47:17;;;;;;;96.95;58.17;;;8.30;99.90;;;;;;5005755;28;20430;-76
2024/02/19 06:49:43;;;;;;;94.00;56.42;;;8.30;99.90;;;;;;5006092;28;20037;-76
2024/02/19 06:52:09;;;;;;;100.93;59.25;;;8.40;99.90;;;;;;5007861;28;20044;-76
2024/02/19 06:54:35;;;;;;;97.72;57.17;;;8.40;99.90;;;;;;5005462;28;20530;-76
2024/02/19 06:57:00;;;;;;;95.90;53.97;;;8.40;99.90;;;;;;5006933;28;20091;-75
2024/02/19 06:59:26;;;;;;;97.32;54.00;;;8.40;99.90;;;;;;5008684;28;20040;-75
2024/02/19 07:01:51;;;;;;;88.40;48.80;;;8.40;99.90;;;;;;5006341;28;20438;-76
2024/02/19 07:04:18;;;;;;;86.32;51.58;;;8.40;99.90;;;;;;5006772;28;20640;-76
2024/02/19 07:06:44;;;;;;;92.72;55.47;;;8.30;99.90;;;;;;5008430;28;20030;-75
2024/02/19 07:09:10;;;;;;;80.00;45.85;;;8.20;99.90;;;;;;5006244;28;20111;-76
2024/02/19 07:11:35;;;;;;;94.15;54.10;;;8.30;99.90;;;;;;5006123;28;20092;-76
2024/02/19 07:14:01;;;;;;;89.97;51.60;;;8.00;99.90;;;;;;5007612;28;20036;-76
2024/02/19 07:16:27;;;;;;;89.72;55.00;;;8.00;99.90;;;;;;5005776;28;20879;-77
2024/02/19 07:18:52;;;;;;;98.72;63.00;;;7.90;99.90;;;;;;5005678;28;20030;-76
2024/02/19 07:21:18;;;;;;;92.38;57.55;;;8.10;99.90;;;;;;5006685;28;20510;-77
2024/02/19 07:23:44;;;;;;;87.05;50.28;;;8.20;99.90;;;;;;5007306;28;20045;-78
2024/02/19 07:26:10;;;;;;;82.85;49.60;;;8.30;99.90;;;;;;5008811;28;20143;-77
2024/02/19 07:28:35;;;;;;;82.72;49.15;;;8.50;99.90;;;;;;5010733;28;20041;-77
2024/02/19 07:31:01;;;;;;;88.28;49.40;;;8.50;99.90;;;;;;5007942;28;20034;-79
2024/02/19 07:33:27;;;;;;;83.35;46.28;;;8.50;99.90;;;;;;5009528;28;20372;-77
2024/02/19 07:35:53;;;;;;;88.15;47.50;;;8.50;99.90;;;;;;5009865;28;20053;-77
2024/02/19 07:38:20;;;;;;;79.18;44.65;;;8.70;99.90;;;;;;5009480;28;20037;-77
2024/02/19 07:40:46;;;;;;;80.30;44.38;;;8.70;99.90;;;;;;4994337;28;20080;-77
2024/02/19 07:43:15;;;;;;;82.45;44.92;;;8.70;99.90;;;;;;5010329;28;20025;-78
2024/02/19 07:45:40;;;;;;;73.40;43.58;;;8.60;99.90;;;;;;5007444;28;20112;-78
2024/02/19 07:48:07;;;;;;;86.28;47.33;;;8.50;99.90;;;;;;5007120;28;20045;-78
2024/02/19 07:50:36;;;;;;;79.57;46.33;;;8.50;99.90;;;;;;5007929;28;20030;-78
2024/02/19 07:53:01;;;;;;;86.40;50.53;;;8.50;99.90;;;;;;5007247;28;20045;-77
2024/02/19 07:55:27;;;;;;;81.47;46.03;;;8.40;99.90;;;;;;5006002;28;20658;-78
2024/02/19 07:57:53;;;;;;;77.82;45.08;;;8.50;99.90;;;;;;5008532;28;21453;-78
2024/02/19 08:00:19;;;;;;;87.43;49.60;;;8.40;99.90;;;;;;5006548;28;20128;-77
2024/02/19 08:02:45;;;;;;;85.13;51.55;;;8.40;99.90;;;;;;5005964;28;20128;-78
2024/02/19 08:05:11;;;;;;;77.15;45.45;;;8.40;99.90;;;;;;5009086;28;20383;-78
2024/02/19 08:07:36;;;;;;;76.00;44.10;;;8.50;99.90;;;;;;5006780;28;20556;-78
2024/02/19 08:10:02;;;;;;;84.63;46.55;;;8.50;99.90;;;;;;5006576;28;21177;-78
2024/02/19 08:12:28;;;;;;;83.43;45.40;;;8.60;99.90;;;;;;5008144;28;20041;-78
2024/02/19 08:14:54;;;;;;;82.43;45.72;;;8.70;99.90;;;;;;5006409;28;20041;-77
2024/02/19 08:17:19;;;;;;;76.55;43.92;;;8.70;99.90;;;;;;5005576;28;20172;-78
2024/02/19 08:19:45;;;;;;;66.30;39.85;;;8.80;99.90;;;;;;5008228;28;20036;-79
2024/02/19 08:22:11;;;;;;;70.10;42.50;;;8.80;99.90;;;;;;5006470;28;20388;-78
2024/02/19 08:24:37;;;;;;;74.93;43.33;;;8.80;99.90;;;;;;5005876;28;20445;-77
2024/02/19 08:27:03;;;;;;;77.30;43.28;;;8.80;99.90;;;;;;5008150;28;20052;-78
2024/02/19 08:29:29;;;;;;;72.93;43.25;;;8.80;99.90;;;;;;5006753;28;20025;-78
2024/02/19 08:31:55;;;;;;;77.43;44.25;;;8.90;99.90;;;;;;5005809;28;20652;-78
2024/02/19 08:34:22;;;;;;;84.57;47.72;;;8.90;99.90;;;;;;5008496;28;20550;-78
2024/02/19 08:36:48;;;;;;;83.15;46.38;;;8.80;99.90;;;;;;5006121;28;20046;-77
2024/02/19 08:39:13;;;;;;;79.05;46.58;;;8.80;99.90;;;;;;5006650;28;20044;-80
2024/02/19 08:41:39;;;;;;;87.18;48.00;;;8.70;99.90;;;;;;5008115;28;20037;-78
2024/02/19 08:44:05;;;;;;;79.20;44.38;;;8.80;99.90;;;;;;5006913;28;20175;-78
2024/02/19 08:46:30;;;;;;;80.40;46.72;;;8.90;99.90;;;;;;5006271;28;20042;-77
2024/02/19 08:48:56;;;;;;;85.35;48.00;;;9.10;99.90;;;;;;5007587;28;20068;-78
2024/02/19 08:51:22;;;;;;;82.82;47.13;;;9.20;99.90;;;;;;5006449;28;21380;-79
2024/02/19 08:53:48;;;;;;;83.03;47.67;;;9.30;99.90;;;;;;5006146;28;20464;-78
2024/02/19 08:56:14;;;;;;;79.45;47.40;;;9.30;99.90;;;;;;5006870;28;20041;-78
2024/02/19 08:58:41;;;;;;;80.38;45.80;;;9.40;99.90;;;;;;5005857;28;20585;-78
2024/02/19 09:01:10;;;;;;;75.82;43.80;;;9.50;99.90;;;;;;5005310;28;20040;-78
2024/02/19 09:03:39;;;;;;;79.45;44.40;;;9.60;99.90;;;;;;5006980;28;20041;-78
2024/02/19 09:06:05;;;;;;;74.75;43.58;;;9.70;99.90;;;;;;5006230;28;20045;-78
2024/02/19 09:08:31;;;;;;;69.90;40.72;;;9.80;99.90;;;;;;5005359;28;20680;-78
2024/02/19 09:10:57;;;;;;;80.10;43.78;;;9.90;99.90;;;;;;5009119;28;20124;-78
2024/02/19 09:13:23;;;;;;;66.90;39.15;;;10.00;99.90;;;;;;5008186;28;20056;-78
2024/02/19 09:15:49;;;;;;;65.65;39.60;;;10.10;99.90;;;;;;5008253;28;20128;-77
2024/02/19 09:18:14;;;;;;;63.10;37.72;;;10.10;99.90;;;;;;5010466;28;20035;-78
2024/02/19 09:20:40;;;;;;;69.07;37.13;;;10.20;99.90;;;;;;5013063;28;20067;-78
2024/02/19 09:23:06;;;;;;;69.70;38.20;;;10.30;99.90;;;;;;5011831;28;20049;-78
2024/02/19 09:25:32;;;;;;;67.45;38.35;;;10.30;99.90;;;;;;5014942;28;20053;-78
2024/02/19 09:27:58;;;;;;;72.78;37.83;;;10.30;99.90;;;;;;5012206;28;20064;-78
2024/02/19 09:30:24;;;;;;;66.03;37.97;;;10.30;99.90;;;;;;5010781;28;20506;-77
2024/02/19 09:32:50;;;;;;;69.68;39.85;;;10.30;99.90;;;;;;5014620;28;20144;-78
2024/02/19 09:35:16;;;;;;;72.15;39.33;;;10.30;99.90;;;;;;5012574;28;20095;-77
2024/02/19 09:37:42;;;;;;;62.28;35.63;;;10.40;99.90;;;;;;5011492;28;20042;-79
2024/02/19 09:40:11;;;;;;;71.43;41.88;;;10.30;99.90;;;;;;5012136;28;20040;-77
2024/02/19 09:42:37;;;;;;;61.67;36.85;;;10.30;99.90;;;;;;5012916;28;20041;-78
2024/02/19 09:45:05;;;;;;;67.60;39.45;;;10.30;99.90;;;;;;5011230;28;20044;-78
2024/02/19 09:47:32;;;;;;;69.22;38.30;;;10.30;99.90;;;;;;5012310;28;20083;-78
2024/02/19 09:49:58;;;;;;;71.70;39.05;;;10.40;99.90;;;;;;5014561;28;20030;-79
2024/02/19 09:52:25;;;;;;;75.05;41.20;;;10.50;99.90;;;;;;5012001;28;20807;-77
2024/02/19 09:54:52;;;;;;;66.28;39.88;;;10.60;99.90;;;;;;5011576;28;20115;-78
2024/02/19 09:57:21;;;;;;;74.55;42.50;;;10.60;99.90;;;;;;5014199;28;20407;-78
2024/02/19 09:59:50;;;;;;;71.28;39.60;;;10.50;99.90;;;;;;5013515;28;20524;-78
2024/02/19 10:02:19;;;;;;;69.25;38.67;;;10.60;99.90;;;;;;5012295;28;26210;-78
2024/02/19 10:04:47;;;;;;;58.10;34.47;;;10.70;99.90;;;;;;5012760;28;20041;-77
2024/02/19 10:07:18;;;;;;;57.08;35.10;;;10.90;99.90;;;;;;5012206;28;20061;-78
2024/02/19 10:09:46;;;;;;;62.08;37.00;;;11.00;99.90;;;;;;5009901;28;20054;-77
2024/02/19 10:12:12;;;;;;;66.25;36.40;;;10.90;99.90;;;;;;5011182;28;20041;-77
2024/02/19 10:14:38;;;;;;;65.07;37.58;;;11.00;99.90;;;;;;5013839;28;20037;-78
2024/02/19 10:17:05;;;;;;;57.67;34.17;;;11.10;99.90;;;;;;5015817;28;20039;-77
2024/02/19 10:19:31;;;;;;;61.50;39.13;;;11.10;99.90;;;;;;5015607;28;20072;-77
2024/02/19 10:21:57;;;;;;;62.67;37.50;;;11.10;99.90;;;;;;5016844;28;20419;-77
2024/02/19 10:24:23;;;;;;;61.80;37.00;;;11.20;99.90;;;;;;5016632;28;20053;-78
2024/02/19 10:26:49;;;;;;;66.50;39.33;;;11.30;99.90;;;;;;5016470;28;20379;-77
2024/02/19 10:29:16;;;;;;;69.18;42.72;;;11.20;99.90;;;;;;5016580;28;20029;-77
2024/02/19 10:31:41;;;;;;;68.75;37.65;;;11.30;99.90;;;;;;5015908;28;20036;-78
2024/02/19 10:34:13;;;;;;;68.55;38.97;;;11.30;99.90;;;;;;5016878;28;20033;-77
2024/02/19 10:36:39;;;;;;;69.05;39.10;;;11.30;99.90;;;;;;5015661;28;20057;-77
2024/02/19 10:39:05;;;;;;;67.70;39.58;;;11.50;99.90;;;;;;5016343;28;20470;-77
2024/02/19 10:41:35;;;;;;;62.60;36.60;;;11.50;99.90;;;;;;5016158;28;20061;-78
2024/02/19 10:44:01;;;;;;;64.70;34.15;;;11.50;99.90;;;;;;5016749;28;20128;-77
2024/02/19 10:46:27;;;;;;;67.60;38.08;;;11.50;99.90;;;;;;5016257;28;20562;-78
2024/02/19 10:48:55;;;;;;;65.47;35.45;;;11.50;99.90;;;;;;5016317;28;20033;-77
2024/02/19 10:51:23;;;;;;;57.75;37.30;;;11.70;99.90;;;;;;5016125;28;20029;-77
2024/02/19 10:53:59;;;;;;;66.95;38.17;;;11.90;99.90;;;;;;5015893;28;20036;-77
2024/02/19 10:56:25;;;;;;;64.65;39.60;;;11.90;99.90;;;;;;5016363;28;20036;-77
2024/02/19 10:58:55;;;;;;;67.68;39.30;;;12.00;99.90;;;;;;5015524;28;20037;-77
2024/02/19 11:01:22;;;;;;;53.13;33.38;;;12.00;99.90;;;;;;5015952;28;20029;-77
2024/02/19 11:03:49;;;;;;;53.90;31.55;;;12.20;99.90;;;;;;5015989;28;20041;-77
2024/02/19 11:06:14;;;;;;;56.60;32.38;;;12.20;99.90;;;;;;5015217;28;20029;-78
2024/02/19 11:08:53;;;;;;;57.03;30.67;;;12.20;99.90;;;;;;5014458;28;20054;-77
2024/02/19 11:11:20;;;;;;;58.50;32.00;;;12.20;99.90;;;;;;5015513;28;20083;-77
2024/02/19 11:13:50;;;;;;;64.32;32.10;;;12.30;99.90;;;;;;5012260;28;20195;-78
2024/02/19 11:16:19;;;;;;;49.25;27.23;;;12.30;99.90;;;;;;5010310;28;20491;-77
2024/02/19 11:18:45;;;;;;;47.97;25.65;;;12.20;99.90;;;;;;5008048;28;20033;-78
2024/02/19 11:21:11;;;;;;;42.75;24.05;;;12.10;99.90;;;;;;5008318;28;20029;-78
2024/02/19 11:23:37;;;;;;;42.78;23.85;;;12.10;99.90;;;;;;5010298;28;20107;-77
2024/02/19 11:26:04;;;;;;;45.60;25.35;;;12.30;99.90;;;;;;5008318;28;20098;-77
2024/02/19 11:28:32;;;;;;;42.05;23.88;;;12.60;99.90;;;;;;5008436;28;20026;-77
2024/02/19 11:31:02;;;;;;;39.58;24.52;;;12.80;99.90;;;;;;5010024;28;20103;-77
2024/02/19 11:33:28;;;;;;;39.25;21.45;;;12.90;99.90;;;;;;5010330;28;20040;-77
2024/02/19 11:35:57;;;;;;;32.30;19.65;;;13.10;99.90;;;;;;5007949;28;20091;-78
2024/02/19 11:38:29;;;;;;;35.10;21.95;;;13.10;99.90;;;;;;4992149;28;20021;-78
2024/02/19 11:40:57;;;;;;;34.58;20.52;;;13.00;99.90;;;;;;5009664;28;20037;-77
2024/02/19 11:43:25;;;;;;;33.08;19.10;;;13.00;99.90;;;;;;5007443;28;20424;-77
2024/02/19 11:45:52;;;;;;;35.90;20.38;;;13.00;99.90;;;;;;5007498;28;21296;-77
2024/02/19 11:48:19;;;;;;;34.05;18.73;;;13.10;99.90;;;;;;5010102;28;20040;-78
2024/02/19 11:50:45;;;;;;;34.60;18.17;;;13.20;99.90;;;;;;5008498;28;20033;-78
2024/02/19 11:53:11;;;;;;;34.50;18.23;;;13.30;99.90;;;;;;5007437;28;20053;-77
2024/02/19 11:55:38;;;;;;;29.23;17.35;;;13.50;99.90;;;;;;5009403;28;20100;-78
2024/02/19 11:58:09;;;;;;;27.35;16.58;;;13.50;99.90;;;;;;5008887;28;20494;-78
2024/02/19 12:00:35;;;;;;;25.38;14.93;;;13.80;99.90;;;;;;5007428;28;20305;-78
2024/02/19 12:03:03;;;;;;;27.50;15.48;;;13.90;99.90;;;;;;5007341;28;20091;-77
2024/02/19 12:05:29;;;;;;;25.20;15.30;;;14.00;99.90;;;;;;5009442;28;20080;-78
2024/02/19 12:07:55;;;;;;;28.55;16.30;;;14.20;99.90;;;;;;5008760;28;20112;-77
2024/02/19 12:10:21;;;;;;;27.25;16.35;;;14.30;99.90;;;;;;5008355;28;20339;-78
2024/02/19 12:12:48;;;;;;;35.63;17.50;;;14.40;99.90;;;;;;5007961;28;20033;-78
2024/02/19 12:15:21;;;;;;;28.02;16.33;;;14.50;99.90;;;;;;5008388;28;20068;-77
2024/02/19 12:17:51;;;;;;;29.48;16.60;;;14.80;99.90;;;;;;5008848;28;20454;-78
2024/02/19 12:20:18;;;;;;;25.00;13.60;;;14.70;99.90;;;;;;5006330;28;20091;-78
2024/02/19 12:22:43;;;;;;;22.02;13.52;;;14.70;99.90;;;;;;5004250;28;20782;-77
2024/02/19 12:25:11;;;;;;;23.63;11.30;;;14.60;99.40;;;;;;5006710;28;20127;-77